createdAt,value
2022-11-20T00:01:34.573Z,4.50
2022-11-20T00:04:09.274Z,4.60
2022-11-20T00:06:44.457Z,4.60
2022-11-20T00:09:11.818Z,4.60
2022-11-20T00:11:45.588Z,4.60
2022-11-20T00:14:19.856Z,4.60
2022-11-20T00:16:47.021Z,4.60
2022-11-20T00:19:14.377Z,4.60
2022-11-20T00:21:50.402Z,4.60
2022-11-20T00:24:18.848Z,4.60
2022-11-20T00:26:52.495Z,4.60
2022-11-20T00:29:26.513Z,4.60
2022-11-20T00:32:00.407Z,4.60
2022-11-20T00:34:41.456Z,4.60
2022-11-20T00:37:08.643Z,4.60
2022-11-20T00:39:42.624Z,4.50
2022-11-20T00:42:16.391Z,4.50
2022-11-20T00:44:52.693Z,4.60
2022-11-20T00:47:20.397Z,4.60
2022-11-20T00:49:54.542Z,4.60
2022-11-20T00:52:29.329Z,4.50
2022-11-20T00:55:00.172Z,4.60
2022-11-20T00:57:33.741Z,4.50
2022-11-20T01:00:00.827Z,4.50
2022-11-20T01:02:34.581Z,4.40
2022-11-20T01:05:09.344Z,4.40
2022-11-20T01:07:43.326Z,4.40
2022-11-20T01:10:10.811Z,4.40
2022-11-20T01:12:45.361Z,4.40
2022-11-20T01:15:12.728Z,4.40
2022-11-20T01:17:46.356Z,4.40
2022-11-20T01:20:13.641Z,4.30
2022-11-20T01:22:41.085Z,4.30
2022-11-20T01:25:15.426Z,4.40
2022-11-20T01:28:11.425Z,4.40
2022-11-20T01:30:38.607Z,4.40
2022-11-20T01:33:25.455Z,4.40
2022-11-20T01:35:52.811Z,4.40
2022-11-20T01:38:28.466Z,4.40
2022-11-20T01:40:56.876Z,4.40
2022-11-20T01:43:31.531Z,4.40
2022-11-20T01:46:18.826Z,4.40
2022-11-20T01:48:56.797Z,4.40
2022-11-20T01:51:56.032Z,4.40
2022-11-20T01:54:35.375Z,4.40
2022-11-20T01:57:03.476Z,4.50
2022-11-20T01:59:38.467Z,4.50
2022-11-20T02:02:12.348Z,4.50
2022-11-20T02:04:40.664Z,4.50
2022-11-20T02:07:15.493Z,4.50
2022-11-20T02:09:42.646Z,4.50
2022-11-20T02:12:37.452Z,4.50
2022-11-20T02:15:04.985Z,4.50
2022-11-20T02:17:40.367Z,4.50
2022-11-20T02:20:16.627Z,4.50
2022-11-20T02:23:01.563Z,4.50
2022-11-20T02:25:36.523Z,4.60
2022-11-20T02:28:10.609Z,4.60
2022-11-20T02:30:37.877Z,4.60
2022-11-20T02:33:11.367Z,4.60
2022-11-20T02:35:47.456Z,4.60
2022-11-20T02:38:22.340Z,4.60
2022-11-20T02:40:56.431Z,4.50
2022-11-20T02:43:24.352Z,4.50
2022-11-20T02:45:58.346Z,4.50
2022-11-20T02:48:34.073Z,4.60
2022-11-20T02:51:01.985Z,4.60
2022-11-20T02:53:35.622Z,4.60
2022-11-20T02:56:12.556Z,4.60
2022-11-20T02:58:39.871Z,4.60
2022-11-20T03:01:13.611Z,4.60
2022-11-20T03:03:41.677Z,4.60
2022-11-20T03:06:16.562Z,4.60
2022-11-20T03:08:44.048Z,4.60
2022-11-20T03:11:18.377Z,4.60
2022-11-20T03:13:45.759Z,4.60
2022-11-20T03:16:22.334Z,4.60
2022-11-20T03:18:50.040Z,4.60
2022-11-20T03:21:24.353Z,4.60
2022-11-20T03:23:58.538Z,4.60
2022-11-20T03:26:27.869Z,4.60
2022-11-20T03:29:04.650Z,4.60
2022-11-20T03:31:43.450Z,4.60
2022-11-20T03:34:19.766Z,4.60
2022-11-20T03:36:54.369Z,4.60
2022-11-20T03:39:21.829Z,4.60
2022-11-20T03:41:57.457Z,4.60
2022-11-20T03:44:24.881Z,4.60
2022-11-20T03:47:03.396Z,4.60
2022-11-20T03:49:30.514Z,4.60
2022-11-20T03:51:57.709Z,4.60
2022-11-20T03:54:31.417Z,4.60
2022-11-20T03:56:58.617Z,4.60
2022-11-20T03:59:32.352Z,4.60
2022-11-20T04:01:59.731Z,4.60
2022-11-20T04:04:33.382Z,4.70
2022-11-20T04:07:00.775Z,4.70
2022-11-20T04:09:34.377Z,4.70
2022-11-20T04:12:09.624Z,4.70
2022-11-20T04:14:43.413Z,4.70
2022-11-20T04:17:10.641Z,4.70
2022-11-20T04:19:44.447Z,4.70
2022-11-20T04:22:13.006Z,4.70
2022-11-20T04:24:48.551Z,4.70
2022-11-20T04:27:16.014Z,4.60
2022-11-20T04:29:49.452Z,4.60
2022-11-20T04:32:37.387Z,4.60
2022-11-20T04:35:05.410Z,4.60
2022-11-20T04:37:39.503Z,4.60
2022-11-20T04:40:07.312Z,4.60
2022-11-20T04:42:42.381Z,4.60
2022-11-20T04:45:10.071Z,4.60
2022-11-20T04:47:43.371Z,4.70
2022-11-20T04:50:11.218Z,4.70
2022-11-20T04:52:45.386Z,4.70
2022-11-20T04:55:12.441Z,4.70
2022-11-20T04:57:46.476Z,4.70
2022-11-20T05:00:14.403Z,4.70
2022-11-20T05:02:48.427Z,4.70
2022-11-20T05:05:15.730Z,4.80
2022-11-20T05:07:49.492Z,4.80
2022-11-20T05:10:16.886Z,4.80
2022-11-20T05:12:50.392Z,4.80
2022-11-20T05:15:18.218Z,4.80
2022-11-20T05:17:56.407Z,4.80
2022-11-20T05:20:24.367Z,4.80
2022-11-20T05:22:58.625Z,4.80
2022-11-20T05:25:25.976Z,4.80
2022-11-20T05:28:00.385Z,4.80
2022-11-20T05:30:27.516Z,4.80
2022-11-20T05:33:14.685Z,4.80
2022-11-20T05:35:42.192Z,4.80
2022-11-20T05:38:16.371Z,4.80
2022-11-20T05:40:50.639Z,4.80
2022-11-20T05:43:24.540Z,4.80
2022-11-20T05:46:02.632Z,4.90
2022-11-20T05:48:36.532Z,4.90
2022-11-20T05:51:06.002Z,4.90
2022-11-20T05:53:46.847Z,4.90
2022-11-20T05:56:25.381Z,4.90
2022-11-20T05:58:52.508Z,4.90
2022-11-20T06:01:27.628Z,4.90
2022-11-20T06:03:55.547Z,4.90
2022-11-20T06:06:23.416Z,4.90
2022-11-20T06:08:57.586Z,4.90
2022-11-20T06:11:24.796Z,4.90
2022-11-20T06:13:59.516Z,4.90
2022-11-20T06:16:27.073Z,4.90
2022-11-20T06:19:00.505Z,4.90
2022-11-20T06:21:27.868Z,4.90
2022-11-20T06:23:55.283Z,4.90
2022-11-20T06:26:35.547Z,4.90
2022-11-20T06:29:15.305Z,4.90
2022-11-20T06:31:43.948Z,4.90
2022-11-20T06:34:24.566Z,4.90
2022-11-20T06:37:04.449Z,4.90
2022-11-20T06:39:33.366Z,4.90
2022-11-20T06:42:00.485Z,4.80
2022-11-20T06:44:34.563Z,4.80
2022-11-20T06:47:02.260Z,4.80
2022-11-20T06:49:36.406Z,4.80
2022-11-20T06:52:04.146Z,4.90
2022-11-20T06:54:31.400Z,4.90
2022-11-20T06:57:07.556Z,4.90
2022-11-20T06:59:34.875Z,4.90
2022-11-20T07:02:08.716Z,4.80
2022-11-20T07:04:37.286Z,4.80
2022-11-20T07:07:11.547Z,4.80
2022-11-20T07:09:38.886Z,4.90
2022-11-20T07:12:07.855Z,4.90
2022-11-20T07:14:41.416Z,4.90
2022-11-20T07:17:08.597Z,4.90
2022-11-20T07:19:44.898Z,4.80
2022-11-20T07:22:14.750Z,4.80
2022-11-20T07:24:48.771Z,4.90
2022-11-20T07:27:16.350Z,4.90
2022-11-20T07:29:44.039Z,4.90
2022-11-20T07:32:17.829Z,4.90
2022-11-20T07:34:58.479Z,4.90
2022-11-20T07:37:35.009Z,5.00
2022-11-20T07:40:08.560Z,5.00
2022-11-20T07:42:36.270Z,5.10
2022-11-20T07:45:10.483Z,5.10
2022-11-20T07:47:38.414Z,5.10
2022-11-20T07:50:07.591Z,5.10
2022-11-20T07:52:41.456Z,5.10
2022-11-20T07:55:09.985Z,5.10
2022-11-20T07:57:44.577Z,5.10
2022-11-20T08:00:13.124Z,5.10
2022-11-20T08:02:50.555Z,5.20
2022-11-20T08:05:18.174Z,5.20
2022-11-20T08:07:52.360Z,5.20
2022-11-20T08:10:19.935Z,5.20
2022-11-20T08:13:17.574Z,5.20
2022-11-20T08:15:51.615Z,5.20
2022-11-20T08:18:33.114Z,5.20
2022-11-20T08:21:05.020Z,5.30
2022-11-20T08:23:39.585Z,5.30
2022-11-20T08:26:14.420Z,5.40
2022-11-20T08:28:48.559Z,5.40
2022-11-20T08:31:15.780Z,5.40
2022-11-20T08:33:56.700Z,5.50
2022-11-20T08:36:30.235Z,5.50
2022-11-20T08:39:04.654Z,5.60
2022-11-20T08:41:34.900Z,5.60
2022-11-20T08:44:11.540Z,5.60
2022-11-20T08:46:42.261Z,5.70
2022-11-20T08:49:19.110Z,5.70
2022-11-20T08:51:54.569Z,5.70
2022-11-20T08:54:24.052Z,5.70
2022-11-20T08:56:57.495Z,5.70
2022-11-20T09:02:21.073Z,5.70
2022-11-20T09:04:55.724Z,5.70
2022-11-20T09:07:23.143Z,5.70
2022-11-20T09:10:16.790Z,5.70
2022-11-20T09:12:43.716Z,5.70
2022-11-20T09:15:17.448Z,5.70
2022-11-20T09:17:57.121Z,5.80
2022-11-20T09:20:31.471Z,5.80
2022-11-20T09:23:03.202Z,5.90
2022-11-20T09:25:30.790Z,5.90
2022-11-20T09:28:05.770Z,5.90
2022-11-20T09:30:33.081Z,5.90
2022-11-20T09:33:06.717Z,6.10
2022-11-20T09:35:49.745Z,6.30
2022-11-20T09:38:16.961Z,6.70
2022-11-20T09:41:11.529Z,7.60
2022-11-20T09:43:56.219Z,8.50
2022-11-20T09:47:05.729Z,9.30
2022-11-20T09:49:36.051Z,9.90
2022-11-20T09:52:37.654Z,10.40
2022-11-20T09:55:08.740Z,10.60
2022-11-20T09:57:52.415Z,10.90
2022-11-20T10:00:22.461Z,11.10
2022-11-20T10:03:08.420Z,11.40
2022-11-20T10:05:52.464Z,11.40
2022-11-20T10:08:55.251Z,11.20
2022-11-20T10:12:10.695Z,10.90
2022-11-20T10:15:01.845Z,10.50
2022-11-20T10:17:46.397Z,10.40
2022-11-20T10:20:45.716Z,10.50
2022-11-20T10:23:51.050Z,10.60
2022-11-20T10:26:32.515Z,10.70
2022-11-20T10:29:18.319Z,10.90
2022-11-20T10:31:59.591Z,11.00
2022-11-20T10:34:58.730Z,11.00
2022-11-20T10:37:38.472Z,11.00
2022-11-20T10:40:05.920Z,11.00
2022-11-20T10:42:51.711Z,11.00
2022-11-20T10:45:35.589Z,11.10
2022-11-20T10:48:09.178Z,11.10
2022-11-20T10:50:48.840Z,11.10
2022-11-20T10:53:29.480Z,11.00
2022-11-20T10:56:14.050Z,10.70
2022-11-20T10:59:20.734Z,10.50
2022-11-20T11:01:54.534Z,10.30
2022-11-20T11:04:50.493Z,10.20
2022-11-20T11:07:21.400Z,10.10
2022-11-20T11:10:01.369Z,10.00
2022-11-20T11:12:30.353Z,10.00
2022-11-20T11:15:05.682Z,10.00
2022-11-20T11:17:35.530Z,9.90
2022-11-20T11:20:28.478Z,9.70
2022-11-20T11:23:07.619Z,9.50
2022-11-20T11:25:37.253Z,9.30
2022-11-20T11:28:24.930Z,9.20
2022-11-20T11:30:52.639Z,9.00
2022-11-20T11:33:29.525Z,8.80
2022-11-20T11:36:26.746Z,8.60
2022-11-20T11:38:55.445Z,8.50
2022-11-20T11:41:36.772Z,8.40
2022-11-20T11:45:00.654Z,8.30
2022-11-20T11:47:33.175Z,8.20
2022-11-20T11:50:32.669Z,8.20
2022-11-20T11:53:22.635Z,8.10
2022-11-20T11:56:05.204Z,8.10
2022-11-20T11:59:07.188Z,8.10
2022-11-20T12:01:54.185Z,8.10
2022-11-20T12:04:58.825Z,8.00
2022-11-20T12:07:47.093Z,8.00
2022-11-20T12:10:24.645Z,8.00
2022-11-20T12:13:05.727Z,8.00
2022-11-20T12:15:42.649Z,8.00
2022-11-20T12:18:17.609Z,8.00
2022-11-20T12:21:04.708Z,7.90
2022-11-20T12:23:40.803Z,8.00
2022-11-20T12:26:31.514Z,8.00
2022-11-20T12:29:02.050Z,7.90
2022-11-20T12:32:01.532Z,7.90
2022-11-20T12:34:50.675Z,7.90
2022-11-20T12:37:52.635Z,7.90
2022-11-20T12:41:08.035Z,7.90
2022-11-20T12:44:37.645Z,7.90
2022-11-20T12:47:14.603Z,7.90
2022-11-20T12:50:06.123Z,7.80
2022-11-20T12:53:04.646Z,7.80
2022-11-20T12:55:44.315Z,7.80
2022-11-20T12:58:40.145Z,7.80
2022-11-20T13:01:58.526Z,7.80
2022-11-20T13:04:37.871Z,7.80
2022-11-20T13:07:15.722Z,7.80
2022-11-20T13:09:56.557Z,7.70
2022-11-20T13:13:03.562Z,7.70
2022-11-20T13:15:50.140Z,7.70
2022-11-20T13:18:25.465Z,7.70
2022-11-20T13:20:53.015Z,7.70
2022-11-20T13:23:35.800Z,7.70
2022-11-20T13:26:16.606Z,7.70
2022-11-20T13:28:51.225Z,7.70
2022-11-20T13:31:46.335Z,7.80
2022-11-20T13:34:30.675Z,7.80
2022-11-20T13:37:07.005Z,7.80
2022-11-20T13:39:45.855Z,7.80
2022-11-20T13:42:16.651Z,7.80
2022-11-20T13:44:55.634Z,7.80
2022-11-20T13:47:29.380Z,7.80
2022-11-20T13:50:05.646Z,7.80
2022-11-20T13:53:00.925Z,7.80
2022-11-20T13:56:13.554Z,7.80
2022-11-20T13:59:18.507Z,7.80
2022-11-20T14:01:47.778Z,7.80
2022-11-20T14:04:34.538Z,7.80
2022-11-20T14:07:08.580Z,7.80
2022-11-20T14:09:43.445Z,7.80
2022-11-20T14:12:26.616Z,7.80
2022-11-20T14:15:02.673Z,7.80
2022-11-20T14:17:38.015Z,7.80
2022-11-20T14:20:22.614Z,7.80
2022-11-20T14:23:03.912Z,7.70
2022-11-20T14:25:32.332Z,7.70
2022-11-20T14:28:08.651Z,7.70
2022-11-20T14:30:47.920Z,7.70
2022-11-20T14:33:23.590Z,7.60
2022-11-20T14:36:08.160Z,7.60
2022-11-20T14:38:43.039Z,7.60
2022-11-20T14:41:24.244Z,7.70
2022-11-20T14:44:08.570Z,7.70
2022-11-20T14:46:36.150Z,7.70
2022-11-20T14:49:06.500Z,7.80
2022-11-20T14:51:49.701Z,7.80
2022-11-20T14:54:26.589Z,7.80
2022-11-20T14:57:13.051Z,7.80
2022-11-20T14:59:46.781Z,7.80
2022-11-20T15:02:21.605Z,7.80
2022-11-20T15:04:58.419Z,7.80
2022-11-20T15:07:36.808Z,7.80
2022-11-20T15:10:17.600Z,7.80
2022-11-20T15:12:51.671Z,7.80
2022-11-20T15:15:31.810Z,7.80
2022-11-20T15:17:59.991Z,7.70
2022-11-20T15:20:30.950Z,7.70
2022-11-20T15:23:05.783Z,7.70
2022-11-20T15:25:42.390Z,7.80
2022-11-20T15:28:24.670Z,7.80
2022-11-20T15:31:00.652Z,7.80
2022-11-20T15:33:28.000Z,7.80
2022-11-20T15:36:15.699Z,7.80
2022-11-20T15:38:43.000Z,7.80
2022-11-20T15:41:16.457Z,7.80
2022-11-20T15:43:43.754Z,7.70
2022-11-20T15:46:20.625Z,7.70
2022-11-20T15:49:09.690Z,7.70
2022-11-20T15:51:40.211Z,7.60
2022-11-20T15:54:23.970Z,7.70
2022-11-20T15:56:55.017Z,7.60
2022-11-20T15:59:29.665Z,7.60
2022-11-20T16:01:57.283Z,7.60
2022-11-20T16:04:24.826Z,7.60
2022-11-20T16:06:58.587Z,7.60
2022-11-20T16:09:32.544Z,7.60
2022-11-20T16:12:03.031Z,7.60
2022-11-20T16:14:55.489Z,7.60
2022-11-20T16:17:49.670Z,7.60
2022-11-20T16:20:26.171Z,7.60
2022-11-20T16:22:54.889Z,7.60
2022-11-20T16:25:28.669Z,7.60
2022-11-20T16:27:56.310Z,7.60
2022-11-20T16:30:30.489Z,7.50
2022-11-20T16:32:57.849Z,7.50
2022-11-20T16:35:39.595Z,7.50
2022-11-20T16:38:13.789Z,7.40
2022-11-20T16:40:47.635Z,7.40
2022-11-20T16:43:15.911Z,7.40
2022-11-20T16:45:52.751Z,7.40
2022-11-20T16:48:20.230Z,7.40
2022-11-20T16:50:59.609Z,7.40
2022-11-20T16:53:26.890Z,7.40
2022-11-20T16:56:01.250Z,7.40
2022-11-20T16:58:34.669Z,7.40
2022-11-20T17:01:14.286Z,7.40
2022-11-20T17:03:49.689Z,7.40
2022-11-20T17:06:28.609Z,7.40
2022-11-20T17:08:57.509Z,7.40
2022-11-20T17:11:32.755Z,7.30
2022-11-20T17:14:07.971Z,7.20
2022-11-20T17:16:43.770Z,7.10
2022-11-20T17:19:11.110Z,7.10
2022-11-20T17:21:39.809Z,7.10
2022-11-20T17:24:20.129Z,7.20
2022-11-20T17:26:56.570Z,7.20
2022-11-20T17:29:24.649Z,7.20
2022-11-20T17:32:02.800Z,7.30
2022-11-20T17:34:36.689Z,7.30
2022-11-20T17:37:16.720Z,7.30
2022-11-20T17:39:45.303Z,7.40
2022-11-20T17:42:34.930Z,7.40
2022-11-20T17:45:02.530Z,7.40
2022-11-20T17:47:37.230Z,7.50
2022-11-20T17:50:05.809Z,7.50
2022-11-20T17:52:33.390Z,7.60
2022-11-20T17:55:08.569Z,7.60
2022-11-20T17:58:00.598Z,7.70
2022-11-20T18:00:29.265Z,7.70
2022-11-20T18:03:03.529Z,7.80
2022-11-20T18:05:30.889Z,7.80
2022-11-20T18:07:58.399Z,7.80
2022-11-20T18:10:32.675Z,7.90
2022-11-20T18:13:00.115Z,7.90
2022-11-20T18:15:33.670Z,7.90
2022-11-20T18:18:00.965Z,8.00
2022-11-20T18:20:39.663Z,8.00
2022-11-20T18:23:13.670Z,8.00
2022-11-20T18:25:48.973Z,8.10
2022-11-20T18:28:24.795Z,8.10
2022-11-20T18:30:52.380Z,8.10
2022-11-20T18:33:28.540Z,8.10
2022-11-20T18:36:03.760Z,8.10
2022-11-20T18:38:43.584Z,8.20
2022-11-20T18:41:31.220Z,8.20
2022-11-20T18:44:25.152Z,8.20
2022-11-20T18:46:52.965Z,8.20
2022-11-20T18:49:26.595Z,8.20
2022-11-20T18:52:00.590Z,8.20
2022-11-20T18:54:28.109Z,8.20
2022-11-20T18:57:02.641Z,8.20
2022-11-20T18:59:30.384Z,8.20
2022-11-20T19:02:06.009Z,8.20
2022-11-20T19:04:38.579Z,8.20
2022-11-20T19:07:12.598Z,8.20
2022-11-20T19:09:49.685Z,8.20
2022-11-20T19:12:24.685Z,8.20
2022-11-20T19:14:52.239Z,8.20
2022-11-20T19:17:25.635Z,8.20
2022-11-20T19:20:01.712Z,8.20
2022-11-20T19:22:29.265Z,8.20
2022-11-20T19:25:03.885Z,8.20
2022-11-20T19:27:31.230Z,8.20
2022-11-20T19:30:10.202Z,8.20
2022-11-20T19:32:45.895Z,8.20
2022-11-20T19:35:26.685Z,8.20
2022-11-20T19:38:06.643Z,8.20
2022-11-20T19:40:40.559Z,8.20
2022-11-20T19:43:14.680Z,8.20
2022-11-20T19:45:42.129Z,8.20
2022-11-20T19:48:16.726Z,8.20
2022-11-20T19:50:44.009Z,8.20
2022-11-20T19:53:18.630Z,8.20
2022-11-20T19:55:56.841Z,8.20
2022-11-20T19:58:32.768Z,8.20
2022-11-20T20:01:18.922Z,8.20
2022-11-20T20:03:54.765Z,8.20
2022-11-20T20:06:30.712Z,8.10
2022-11-20T20:09:10.793Z,8.10
2022-11-20T20:11:40.270Z,8.10
2022-11-20T20:14:20.905Z,8.00
2022-11-20T20:16:51.598Z,8.00
2022-11-20T20:19:26.256Z,8.00
2022-11-20T20:22:03.531Z,8.00
2022-11-20T20:24:37.220Z,8.00
2022-11-20T20:27:12.685Z,8.00
2022-11-20T20:29:47.119Z,7.90
2022-11-20T20:32:14.649Z,7.90
2022-11-20T20:34:55.681Z,7.90
2022-11-20T20:37:29.520Z,7.90
2022-11-20T20:40:04.045Z,7.90
2022-11-20T20:42:39.579Z,7.80
2022-11-20T20:45:07.684Z,7.80
2022-11-20T20:47:44.735Z,7.80
2022-11-20T20:50:13.450Z,7.80
2022-11-20T20:52:47.634Z,7.80
2022-11-20T20:55:15.957Z,7.90
2022-11-20T20:57:49.724Z,7.90
2022-11-20T21:00:20.164Z,7.90
2022-11-20T21:02:53.654Z,7.90
2022-11-20T21:05:20.993Z,8.00
2022-11-20T21:08:13.646Z,8.00
2022-11-20T21:10:41.110Z,8.00
2022-11-20T21:13:09.617Z,8.00
2022-11-20T21:15:47.000Z,8.00
2022-11-20T21:18:22.041Z,8.00
2022-11-20T21:21:08.971Z,8.10
2022-11-20T21:23:44.719Z,8.00
2022-11-20T21:26:12.720Z,8.00
2022-11-20T21:28:40.110Z,8.00
2022-11-20T21:31:22.765Z,7.90
2022-11-20T21:33:51.874Z,7.90
2022-11-20T21:36:33.086Z,7.90
2022-11-20T21:39:00.852Z,7.80
2022-11-20T21:41:37.879Z,7.80
2022-11-20T21:44:30.150Z,7.90
2022-11-20T21:47:01.680Z,7.80
2022-11-20T21:49:29.317Z,7.80
2022-11-20T21:52:03.653Z,7.80
2022-11-20T21:54:40.932Z,7.90
2022-11-20T21:57:32.125Z,7.90
2022-11-20T22:00:00.894Z,7.80
2022-11-20T22:02:45.964Z,7.80
2022-11-20T22:05:22.319Z,7.80
2022-11-20T22:08:04.065Z,7.70
2022-11-20T22:10:40.510Z,7.70
2022-11-20T22:13:48.631Z,7.60
2022-11-20T22:16:37.248Z,7.60
2022-11-20T22:19:12.773Z,7.50
2022-11-20T22:21:45.709Z,7.40
2022-11-20T22:24:23.197Z,7.30
2022-11-20T22:26:57.640Z,7.20
2022-11-20T22:29:24.879Z,7.10
2022-11-20T22:31:59.871Z,7.10
2022-11-20T22:34:27.188Z,7.00
2022-11-20T22:37:07.717Z,6.90
2022-11-20T22:39:43.700Z,6.90
2022-11-20T22:42:18.583Z,6.80
2022-11-20T22:44:45.716Z,6.80
2022-11-20T22:47:19.525Z,6.70
2022-11-20T22:49:46.681Z,6.70
2022-11-20T22:52:13.937Z,6.60
2022-11-20T22:54:47.659Z,6.60
2022-11-20T22:57:14.897Z,6.50
2022-11-20T22:59:48.910Z,6.40
2022-11-20T23:02:16.509Z,6.40
2022-11-20T23:04:50.588Z,6.40
2022-11-20T23:07:24.791Z,6.40
2022-11-20T23:09:58.737Z,6.40
2022-11-20T23:12:32.600Z,6.40
2022-11-20T23:14:59.908Z,6.40
2022-11-20T23:17:33.840Z,6.40
2022-11-20T23:20:01.048Z,6.40
2022-11-20T23:22:34.861Z,6.40
2022-11-20T23:25:08.659Z,6.40
2022-11-20T23:27:42.711Z,6.40
2022-11-20T23:30:10.821Z,6.40
2022-11-20T23:32:44.862Z,6.40
2022-11-20T23:35:31.674Z,6.40
2022-11-20T23:38:11.747Z,6.40
2022-11-20T23:40:45.698Z,6.40
2022-11-20T23:43:15.847Z,6.40
2022-11-20T23:45:54.598Z,6.40
2022-11-20T23:48:23.786Z,6.40
2022-11-20T23:50:57.693Z,6.40
2022-11-20T23:53:25.608Z,6.30
2022-11-20T23:56:04.639Z,6.30
2022-11-20T23:58:38.184Z,6.40
